Sikuliaq — WDG7520 — position and weather

sailwx.info

Track history (hours):
 
Tides and Currents Weather Stations Pressure Air Temp Water Temp Dewpoint Dewpoint Depression Visibility Wind Speed Wind Dir Waves Ship Positions

Oceanographic research ship Sikuliaq (USA)

Owner: Mackay Communications, Raleigh, NC. More information available from US FCC via Universal Licensing System.

Last reported at 2017-May-24 14:00 UTC. Time now 2017-May-24 15:26 UTC.
Position N 53°06' W 157°00'.

Length 79 m; draft 5.5 m.

Type: Other ship. MMSI: 338417000.

Wind from 200 at 31 knots

Barometer 1021.2 mb
Air temperature 6.8 ° C
Water temperature 6.4 ° C

Date/timePositionNaut miles runAvg speedWind from/ knotsBaromVisibWave heightAir tempDewpointWater temp
2017-May-24 14:00N 53°06' W 157°00'7 7.2 200 / 311021.2 6.8 6.4
2017-May-24 13:00N 53°06' W 156°48'9 9.4 200 / 331021.9 6.9 6.3
2017-May-24 12:00N 53°00' W 156°36'1110.8 200 / 331022.8 6.8 6.4
2017-May-24 11:00N 53°00' W 156°18'9 9.4 200 / 361023.6 6.9 6.9 6.3
2017-May-24 10:00N 52°54' W 156°06'7 7.2 200 / 331024.2 6.9 6.9 6.4
2017-May-24 09:00N 52°54' W 155°54'7 7.2 200 / 301025.2 6.9 6.9 6.3
2017-May-24 08:00N 52°54' W 155°42'1212.4 200 / 281025.8 6.8 6.8 6.3
2017-May-24 07:00N 52°48' W 155°24'7 7.3 200 / 301026.5 6.8 6.8 6.5
2017-May-24 06:00N 52°48' W 155°12'9 9.4 210 / 301027.2 6.8 6.8 6.4
2017-May-24 05:00N 52°42' W 155°00'1110.9 210 / 281028.0 6.7 6.7 6.4
2017-May-24 04:00N 52°42' W 154°42'7 7.3 210 / 281028.5 6.6 6.6 6.4
2017-May-24 03:00N 52°42' W 154°30'9 9.4 210 / 271029.1 6.6 6.3 6.4
2017-May-24 02:00N 52°36' W 154°18'7 7.3 210 / 301029.3 6.5 5.7 6.2
2017-May-24 01:00N 52°36' W 154°06'9 9.4 220 / 291029.8 6.5 5.5 6.4
2017-May-24 00:00N 52°30' W 153°54'1111.0 220 / 251030.5 6.5 5.6 6.3
2017-May-23 23:00N 52°30' W 153°36'7 7.3 220 / 261031.0 6.6 5.1 6.4
2017-May-23 22:00N 52°30' W 153°24'9 9.5 220 / 231031.5 6.5 5.3 6.4
2017-May-23 21:00N 52°24' W 153°12'1111.0 220 / 241031.6 6.3 5.4 6.5
2017-May-23 20:00N 52°24' W 152°54'9 9.5 220 / 221031.7 6.4 5.5 6.4
2017-May-23 19:00N 52°18' W 152°42'1111.0 230 / 221032.0 6.4 5.0 6.4
2017-May-23 18:00N 52°18' W 152°24'9 9.5 240 / 191031.9 6.1 5.0 6.4
2017-May-23 17:00N 52°12' W 152°12'1111.0 240 / 211031.8 6.2 5.3 6.5
2017-May-23 16:00N 52°12' W 151°54'7 7.4 250 / 201031.4 6.3 5.6 6.4
2017-May-23 15:00N 52°12' W 151°42'1312.6 250 / 191030.9 6.2 5.8 6.5
2017-May-23 14:00N 52°06' W 151°24'7 7.4 260 / 181030.6 6.2 5.8 6.5
2017-May-23 13:00N 52°06' W 151°12'10 9.5 280 / 141030.0 6.4 5.6 6.4
2017-May-23 12:00N 52°00' W 151°00'7 7.4 290 / 161029.6 6.5 5.3 6.6
2017-May-23 11:00N 52°00' W 150°48'1312.6 300 / 201028.9 6.6 5.9 6.6
2017-May-23 10:00N 51°54' W 150°30'7 7.4 300 / 191027.9 6.7 6.0 6.4
2017-May-23 09:00N 51°54' W 150°18'7 7.4 300 / 191026.7 6.8 6.3 6.5
2017-May-23 08:00N 51°54' W 150°06'10 9.5 300 / 261025.3 6.5 6.3 6.5
2017-May-23 07:00N 51°48' W 149°54'7 7.4 300 / 251023.7 6.9 5.9 6.5
2017-May-23 06:00N 51°48' W 149°42'1111.1 300 / 271022.0 6.9 5.7 6.8
2017-May-23 05:00N 51°48' W 149°24'10 9.5 300 / 271020.6 6.7 6.3 6.7
2017-May-23 04:00N 51°42' W 149°12'7 7.4 290 / 281019.6 6.8 6.4 6.9
2017-May-23 03:00N 51°42' W 149°00'10 9.6 290 / 291018.1 7.1 5.7 7.0
2017-May-23 02:00N 51°36' W 148°48'1111.2 280 / 271017.1 7.0 5.9 7.0
2017-May-23 01:00N 51°36' W 148°30'1111.2 280 / 231016.5 6.7 5.5 7.1
2017-May-23 00:00N 51°36' W 148°12'10 9.6 270 / 241016.1 7.1 6.0 7.2
2017-May-22 23:00N 51°30' W 148°00'1111.2 260 / 171015.6 6.5 6.5 7.3
2017-May-22 22:00N 51°30' W 147°42'1111.2 260 / 181015.2 6.5 5.8 7.3
2017-May-22 21:00N 51°30' W 147°24'10 9.6 270 / 181014.9 6.6 5.9 7.3
2017-May-22 20:00N 51°24' W 147°12'1111.2 280 / 121014.3 6.5 7.3
2017-May-22 19:00N 51°24' W 146°54'1111.2 300 / 151013.7 6.3 7.3
2017-May-22 18:00N 51°24' W 146°36'1312.7 300 / 191012.8 6.8 7.4
2017-May-22 17:00N 51°18' W 146°18'8 7.5 200 / 161012.7 7.4 7.5
2017-May-22 16:00N 51°18' W 146°06'1111.3 200 / 171013.1 7.2 7.4
2017-May-22 15:00N 51°18' W 145°48'1312.8 190 / 141013.4 7.3 7.4
2017-May-22 14:00N 51°12' W 145°30'8 7.5 180 / 151013.9 7.2 7.2
2017-May-22 13:00N 51°12' W 145°18'1312.8 180 / 131014.0 7.1 7.3
2017-May-22 12:00N 51°06' W 145°00'8 7.5 190 / 101014.6 6.9 7.2
2017-May-22 11:00N 51°06' W 144°48'1111.3 200 / 151015.1 6.6 7.1
2017-May-22 10:00N 51°06' W 144°30'1312.8 220 / 111015.2 7.3 7.2
2017-May-22 09:00N 51°00' W 144°12'1111.3 190 / 111015.2 7.3 7.1
2017-May-22 08:00N 51°00' W 143°54'1111.3 180 / 121015.3 7.4 7.2
2017-May-22 07:00N 51°00' W 143°36'10 9.7 180 / 121015.6 7.5 7.3
2017-May-22 06:00N 50°54' W 143°24'1111.4 180 / 121015.6 7.4 7.2
2017-May-22 05:00N 50°54' W 143°06'1111.4 190 / 121015.1 7.5 7.2
2017-May-22 04:00N 50°54' W 142°48'10 9.7 190 / 141014.8 7.9 7.2
2017-May-22 03:00N 50°48' W 142°36'1111.4 180 / 171014.4 8.0 7.3
2017-May-22 02:00N 50°48' W 142°18'1312.9 180 / 151014.3 8.1 7.4
2017-May-22 01:00N 50°42' W 142°00'4 3.8 170 / 161014.2 8.4 7.8
2017-May-22 00:00N 50°42' W 141°54'4 3.8 190 / 121014.8 8.6 7.5
2017-May-21 23:00N 50°42' W 141°48'10 9.7 190 / 151014.0 8.5 7.5
2017-May-21 22:00N 50°36' W 141°36'1312.9 200 / 181013.9 8.5 7.6
2017-May-21 21:00N 50°30' W 141°18'8 7.6 190 / 181013.7 8.3 7.5
2017-May-21 20:00N 50°30' W 141°06'10 9.7 180 / 201013.4 8.2 7.3
2017-May-21 19:00N 50°24' W 140°54'10 9.7 190 / 181013.0 8.2 7.2
2017-May-21 18:00N 50°18' W 140°42'1313.0 200 / 171012.6 7.9 7.3
2017-May-21 17:00N 50°12' W 140°24'10 9.8 210 / 211011.8 8.4 7.7
2017-May-21 16:00N 50°06' W 140°12'8 7.7 200 / 191011.5 8.2 7.8
2017-May-21 15:00N 50°06' W 140°00'8 7.7 210 / 221010.4 8.7 7.9
2017-May-21 14:00N 50°06' W 139°48'10 9.8 200 / 261009.6 8.9 8.0
2017-May-21 13:00N 50°00' W 139°36'1211.6 190 / 301008.9 9.2 7.9
2017-May-21 12:00N 50°00' W 139°18'4 3.9 190 / 331008.6 9.5 7.9
2017-May-21 11:00N 50°00' W 139°12'8 7.7 180 / 341008.3 9.6 7.9
2017-May-21 10:00N 50°00' W 139°00'1313.0 180 / 381008.7 9.8 7.9
2017-May-21 09:00N 49°54' W 138°42'8 7.7 180 / 361009.2 9.5 8.0
2017-May-21 08:00N 49°54' W 138°30'8 7.7 170 / 331009.8 9.6 8.0
2017-May-21 07:00N 49°54' W 138°18'8 7.7 170 / 341010.8 9.5 8.0
2017-May-21 06:00N 49°54' W 138°06'1313.1 170 / 341011.7 9.7 8.1
2017-May-21 05:00N 49°48' W 137°48'8 7.7 170 / 321012.4 9.6 8.1
2017-May-21 04:00N 49°48' W 137°36'1211.6 180 / 311013.0 9.7 8.2
2017-May-21 03:00N 49°48' W 137°18'10 9.8 170 / 311013.9 9.6 8.1
2017-May-21 02:00N 49°42' W 137°06'8 7.8 180 / 291014.6 9.7 8.3
2017-May-21 01:00N 49°42' W 136°54'1211.6 180 / 271015.5 9.6 8.3
2017-May-21 00:00N 49°42' W 136°36'10 9.8 180 / 301016.0 9.7 8.3
2017-May-20 23:00N 49°36' W 136°24'8 7.8 180 / 291016.7 9.9 8.3
2017-May-20 22:00N 49°36' W 136°12'1211.7 180 / 271017.5 10.110.1 8.4
2017-May-20 21:00N 49°36' W 135°54'1211.7 180 / 281017.9 10.310.1 8.5
2017-May-20 20:00N 49°36' W 135°36'10 9.8 170 / 271018.6 10.310.2 8.7
2017-May-20 19:00N 49°30' W 135°24'1211.7 180 / 241019.3 10.210.2 8.6
2017-May-20 18:00N 49°30' W 135°06'2311.7 170 / 221019.7 10.1
2017-May-20 16:00N 49°30' W 134°30'8 7.8 180 / 181020.6 9.3
2017-May-20 15:00N 49°30' W 134°18'1313.2 170 / 181020.9 9.0
2017-May-20 14:00N 49°24' W 134°00'1211.7 170 / 181021.2 8.8
2017-May-20 13:00N 49°24' W 133°42'8 7.8 160 / 171021.4 8.2
2017-May-20 12:00N 49°24' W 133°30'1211.7 180 / 181022.3 7.6
2017-May-20 11:00N 49°24' W 133°12'1211.7 180 / 91022.4 8.2
2017-May-20 10:00N 49°24' W 132°54'7 7.2 200 / 81022.7 8.5
2017-May-20 09:00N 49°18' W 132°48'1211.7 240 / 41023.1 8.3
2017-May-20 08:00N 49°18' W 132°30'1313.2 230 / 81023.2 8.5
2017-May-20 07:00N 49°12' W 132°12'1211.8 310 / 61023.0 8.7
2017-May-20 06:00N 49°12' W 131°54'8 7.8 260 / 71022.9 8.7
2017-May-20 05:00N 49°12' W 131°42'1211.8 310 / 51022.6 8.4
2017-May-20 04:00N 49°12' W 131°24'1313.2 310 / 51021.9 8.4
2017-May-20 03:00N 49°06' W 131°06'5110.3 280 / 51021.9 9.5
2017-May-19 22:00N 49°00' W 129°48'1211.8 250 / 91021.0 9.6
2017-May-19 21:00N 49°00' W 129°30'1313.3 240 / 111021.0 9.6
2017-May-19 20:00N 48°54' W 129°12'1211.8 200 / 41020.7 9.7
2017-May-19 19:00N 48°54' W 128°54'8 7.9 210 / 51020.7 10.010.0
2017-May-19 18:00N 48°54' W 128°42'1211.8 240 / 41020.3 9.9
2017-May-19 17:00N 48°54' W 128°24'2110.3 280 / 51020.3 9.8
2017-May-19 15:00N 48°48' W 127°54'1211.9 140 / 91019.7 10.3
2017-May-19 14:00N 48°48' W 127°36'10 9.9 130 / 111019.6 10.1
2017-May-19 13:00N 48°42' W 127°24'1211.9 140 / 101019.5 10.0
2017-May-19 12:00N 48°42' W 127°06'1211.9 130 / 61019.8 10.5
2017-May-19 11:00N 48°42' W 126°48'2 7.7 130 / 61020.0 10.710.7
2017-May-19 10:41N 48°41' W 126°45'311.4
2017-May-19 10:26N 48°41' W 126°40'715.7
2017-May-19 10:00N 48°42' W 126°30'230.0 130 / 71020.0 10.810.4
2017-May-19 09:55N 48°40' W 126°32'410.7
2017-May-19 09:30N 48°39' W 126°25'510.7
2017-May-19 09:00N 48°39' W 126°17'3187.7
2017-May-19 09:00N 48°36' W 126°18'612.3 130 / 51020.2 10.810.0
2017-May-19 08:30N 48°38' W 126°09'612.4
2017-May-19 08:00N 48°36' W 126°00'1178.3 160 / 21020.7 10.710.2
2017-May-19 07:59N 48°36' W 126°01'510.3
2017-May-19 07:30N 48°36' W 125°54'510.1
2017-May-19 07:01N 48°36' W 125°46'170.4
2017-May-19 07:00N 48°36' W 125°48'613.4 270 / 11020.7 10.8 9.7
2017-May-19 06:30N 48°35' W 125°38'510.6
2017-May-19 06:00N 48°34' W 125°30'2129.6
2017-May-19 06:00N 48°36' W 125°30'611.8 330 / 11020.6 11.2 8.9
2017-May-19 05:30N 48°33' W 125°23'610.9
2017-May-19 05:00N 48°32' W 125°14'3320.7
2017-May-19 05:00N 48°30' W 125°12'4 8.1 340 / 21020.5 11.3 9.0
2017-May-19 04:30N 48°32' W 125°07'510.1
2017-May-19 04:00N 48°32' W 124°59'2224.7
2017-May-19 04:00N 48°30' W 125°00'612.2 340 / 61020.2 11.1 9.4
2017-May-19 03:30N 48°32' W 124°51'5 9.7
2017-May-19 03:01N 48°31' W 124°44'2106.4
2017-May-19 03:00N 48°30' W 124°42'3 6.5 320 / 61020.2 11.3 9.8
2017-May-19 02:30N 48°29' W 124°37'5 9.9
2017-May-19 02:00N 48°27' W 124°31'3179.2
2017-May-19 02:00N 48°30' W 124°30'713.2 300 / 91020.2 11.110.3
2017-May-19 01:30N 48°25' W 124°24'510.1
2017-May-19 01:00N 48°23' W 124°17'190.9
2017-May-19 01:00N 48°24' W 124°18'612.6 300 / 121020.6 11.210.4
2017-May-19 00:30N 48°21' W 124°10'510.6
2017-May-19 00:00N 48°19' W 124°02'2381.9
2017-May-19 00:00N 48°18' W 124°00'4 7.7 350 / 61020.7 11.510.3
2017-May-18 23:30N 48°18' W 123°54'610.8
2017-May-18 23:00N 48°17' W 123°46'2673.1
2017-May-18 23:00N 48°18' W 123°48'714.9 130 / 31021.0 11.5 7.3
2017-May-18 22:30N 48°16' W 123°37'612.2
2017-May-18 22:00N 48°15' W 123°28'3510.1
2017-May-18 22:00N 48°18' W 123°30'816.2 010 / 21021.3 11.9 8.8
2017-May-18 21:30N 48°14' W 123°20'611.9
2017-May-18 21:00N 48°13' W 123°11'187.9
2017-May-18 21:00N 48°12' W 123°12'713.6 330 / 41021.8 11.5 9.2
2017-May-18 20:30N 48°13' W 123°02'611.9
2017-May-18 20:00N 48°12' W 122°53'131.8
2017-May-18 20:00N 48°12' W 122°54'613.2 350 / 71021.7 10.9 9.8
2017-May-18 19:30N 48°10' W 122°45'714.0
2017-May-18 19:00N 48°06' W 122°36'415.0 320 1021.8 11.4 9.4
2017-May-18 18:45N 48°03' W 122°38'311.9
2017-May-18 18:30N 47°60' W 122°36'611.3
2017-May-18 18:01N 47°56' W 122°30'2133.9
2017-May-18 18:00N 47°54' W 122°30'3 6.6 170 / 71021.9 11.3 9.8
2017-May-18 17:31N 47°51' W 122°27'510.6
2017-May-18 17:01N 47°46' W 122°26'2126.5
2017-May-18 17:00N 47°48' W 122°24'714.9 210 / 61022.2 10.1 9.2
2017-May-18 16:30N 47°41' W 122°27'4 8.0
2017-May-18 16:00N 47°37' W 122°25'183.7
2017-May-18 16:00N 47°36' W 122°24'2 3.7 200 / 81022.1 9.6 8.6
2017-May-18 15:28N 47°38' W 122°23'2 4.2
2017-May-18 15:00N 47°36' W 122°24'263.5 220 / 41022.3 9.6 8.8
2017-May-18 14:58N 47°38' W 122°23'0 0.0
2017-May-18 14:28N 47°38' W 122°23'2 4.2
2017-May-18 14:00N 47°36' W 122°24'2 3.7 220 / 41022.1 9.7 9.0
2017-May-18 13:28N 47°38' W 122°23'2 4.2
2017-May-18 13:00N 47°36' W 122°24'263.5 200 / 31021.7 9.5 8.6
2017-May-18 12:58N 47°38' W 122°23'0 0.0
2017-May-18 12:28N 47°38' W 122°23'2 4.2
2017-May-18 12:00N 47°36' W 122°24'263.5 210 / 31022.0 9.9 8.8
2017-May-18 11:58N 47°38' W 122°23'0 0.0
2017-May-18 11:28N 47°38' W 122°23'2 4.2
2017-May-18 11:00N 47°36' W 122°24'263.5 180 / 31022.0 10.2 8.5
2017-May-18 10:58N 47°38' W 122°23'0 0.0
2017-May-18 10:28N 47°38' W 122°23'2 4.2
2017-May-18 10:00N 47°36' W 122°24'263.5 170 / 41021.7 10.7 8.4
2017-May-18 09:58N 47°38' W 122°23'0 0.0
2017-May-18 09:28N 47°38' W 122°23'2 4.2
2017-May-18 09:00N 47°36' W 122°24'262.9 170 / 41021.8 11.1 8.5
2017-May-18 08:58N 47°38' W 122°23'0 0.0
2017-May-18 08:28N 47°38' W 122°23'2 4.2
2017-May-18 08:00N 47°36' W 122°24'263.5 160 / 41021.8 11.3 9.1
2017-May-18 07:58N 47°38' W 122°23'0 0.0
2017-May-18 07:28N 47°38' W 122°23'2 4.2
2017-May-18 07:00N 47°36' W 122°24'263.5 190 / 41021.9 11.6 9.3
2017-May-18 06:58N 47°38' W 122°23'0 0.0
2017-May-18 06:28N 47°38' W 122°23'2 4.2
2017-May-18 06:00N 47°36' W 122°24'263.5 190 / 31022.0 11.9 9.7
2017-May-18 05:58N 47°38' W 122°23'0 0.0
2017-May-18 05:28N 47°38' W 122°23'2 4.2
2017-May-18 05:00N 47°36' W 122°24'263.5 200 / 31022.0 12.110.0
2017-May-18 04:58N 47°38' W 122°23'0 0.0
2017-May-18 04:28N 47°38' W 122°23'2 4.2
2017-May-18 04:00N 47°36' W 122°24'263.5 200 / 51021.6 12.7 9.9
2017-May-18 03:58N 47°38' W 122°23'0 0.0
2017-May-18 03:28N 47°38' W 122°23'2 4.2
2017-May-18 03:00N 47°36' W 122°24'263.5 200 / 51021.5 13.1 9.5
2017-May-18 02:58N 47°38' W 122°23'0 0.0
2017-May-18 02:28N 47°38' W 122°23'2 4.2
2017-May-18 02:00N 47°36' W 122°24'262.9 230 / 31021.5 12.9 9.8
2017-May-18 01:58N 47°38' W 122°23'0 0.0
2017-May-18 01:28N 47°38' W 122°23'2 4.2
2017-May-18 01:00N 47°36' W 122°24'263.5 230 / 41021.7 13.1 9.1
2017-May-18 00:58N 47°38' W 122°23'0 0.0
2017-May-18 00:28N 47°38' W 122°23'2 4.2
2017-May-18 00:00N 47°36' W 122°24'263.5 220 / 41021.7 13.7 9.0
2017-May-17 23:58N 47°38' W 122°23'0 0.0
2017-May-17 23:28N 47°38' W 122°23'2 4.2
2017-May-17 23:00N 47°36' W 122°24'263.5 230 / 41021.6 13.0 9.4
2017-May-17 22:58N 47°38' W 122°23'0 0.0
2017-May-17 22:28N 47°38' W 122°23'2 4.2
2017-May-17 22:00N 47°36' W 122°24'263.5 250 / 41021.3 13.2 9.9
2017-May-17 21:58N 47°38' W 122°23'0 0.0
2017-May-17 21:28N 47°38' W 122°23'2 4.2
2017-May-17 21:00N 47°36' W 122°24'263.5 240 / 51021.2 12.7 8.3
2017-May-17 20:58N 47°38' W 122°23'0 0.0
2017-May-17 20:28N 47°38' W 122°23'2 4.2
2017-May-17 20:00N 47°36' W 122°24'263.5 180 / 41021.1 13.2 8.3
2017-May-17 19:58N 47°38' W 122°23'0 0.0
2017-May-17 19:28N 47°38' W 122°23'2 4.2
2017-May-17 19:00N 47°36' W 122°24'262.9 180 / 51020.9 11.5 8.1
2017-May-17 18:58N 47°38' W 122°23'0 0.0
2017-May-17 18:28N 47°38' W 122°23'2 4.2
2017-May-17 18:00N 47°36' W 122°24'263.5 180 / 21020.5 10.8 7.9
2017-May-17 17:58N 47°38' W 122°23'0 0.0
2017-May-17 17:28N 47°38' W 122°23'2 4.2
2017-May-17 17:00N 47°36' W 122°24'263.5 240 / 51019.9 9.7 8.6
2017-May-17 16:58N 47°38' W 122°23'0 0.0
2017-May-17 16:28N 47°38' W 122°23'2 4.2
2017-May-17 16:00N 47°36' W 122°24'263.5 220 / 51019.2 9.7 8.4
2017-May-17 15:58N 47°38' W 122°23'0 0.0
2017-May-17 15:28N 47°38' W 122°23'2 4.2
2017-May-17 15:00N 47°36' W 122°24'263.5 150 / 41018.5 9.2 7.6
2017-May-17 14:58N 47°38' W 122°23'2 2.0
2017-May-17 14:00N 47°36' W 122°24'263.5 150 / 51017.7 8.9 7.4
2017-May-17 13:58N 47°38' W 122°23'0 0.0
2017-May-17 13:28N 47°38' W 122°23'2 4.2
2017-May-17 13:00N 47°36' W 122°24'263.5 150 / 71017.1 8.7 7.1
2017-May-17 12:58N 47°38' W 122°23'0 0.0
2017-May-17 12:28N 47°38' W 122°23'2 4.2
2017-May-17 12:00N 47°36' W 122°24'263.5 150 / 51016.5 8.7 7.0
2017-May-17 11:58N 47°38' W 122°23'0 0.0
2017-May-17 11:28N 47°38' W 122°23'2 4.2
2017-May-17 11:00N 47°36' W 122°24'224.2 140 / 51016.1 8.6 6.9
2017-May-17 10:55N 47°38' W 122°23'0 0.0
2017-May-17 10:28N 47°38' W 122°23'2 4.2
2017-May-17 10:00N 47°36' W 122°24'263.5 150 / 61015.4 8.6 6.9
2017-May-17 09:58N 47°38' W 122°23'0 0.0
2017-May-17 09:28N 47°38' W 122°23'2 4.2
2017-May-17 09:00N 47°36' W 122°24'262.9 150 / 81014.3 8.6 7.1
2017-May-17 08:58N 47°38' W 122°23'0 0.0
2017-May-17 08:28N 47°38' W 122°23'2 4.2
2017-May-17 08:00N 47°36' W 122°24'262.9 150 / 81013.7 8.7 7.1
2017-May-17 07:58N 47°38' W 122°23'0 0.0
2017-May-17 07:28N 47°38' W 122°23'2 4.2
2017-May-17 07:00N 47°36' W 122°24'263.5 140 / 61012.8 8.8 7.8
2017-May-17 06:58N 47°38' W 122°23'0 0.0
2017-May-17 06:25N 47°38' W 122°23'2 4.7
2017-May-17 06:00N 47°36' W 122°24'263.5 140 / 61012.1 9.2 8.0
2017-May-17 05:58N 47°38' W 122°23'0 0.0
2017-May-17 05:28N 47°38' W 122°23'2 4.2
2017-May-17 05:00N 47°36' W 122°24'224.2 150 / 71011.4 9.9 8.5
2017-May-17 04:55N 47°38' W 122°23'0 0.0
2017-May-17 04:28N 47°38' W 122°23'2 4.2
2017-May-17 04:00N 47°36' W 122°24'263.5 200 / 31010.5 10.2 7.2
2017-May-17 03:58N 47°38' W 122°23'0 0.0
2017-May-17 03:28N 47°38' W 122°23'2 4.2
2017-May-17 03:00N 47°36' W 122°24'262.9 220 / 51009.7 10.3 7.0
2017-May-17 02:58N 47°38' W 122°23'0 0.0
2017-May-17 02:28N 47°38' W 122°23'2 4.2
2017-May-17 02:00N 47°36' W 122°24'263.5 230 / 71009.2 10.4 7.8
2017-May-17 01:58N 47°38' W 122°23'0 0.0
2017-May-17 01:28N 47°38' W 122°23'2 4.2
2017-May-17 01:00N 47°36' W 122°24'263.5 230 / 41008.5 10.8 5.3
2017-May-17 00:58N 47°38' W 122°23'0 0.0
2017-May-17 00:25N 47°38' W 122°23'2 4.7
2017-May-17 00:00N 47°36' W 122°24'262.9 270 / 41007.6 11.1 5.0
2017-May-16 23:58N 47°38' W 122°23'0 0.0
2017-May-16 23:28N 47°38' W 122°23'2 4.2
2017-May-16 23:00N 47°36' W 122°24'263.5 250 / 51006.9 10.5 5.2
2017-May-16 22:58N 47°38' W 122°23'0 0.0
2017-May-16 22:28N 47°38' W 122°23'2 4.2
2017-May-16 22:00N 47°36' W 122°24'263.5 250 / 41006.1 10.5 5.3
2017-May-16 21:58N 47°38' W 122°23'0 0.0
2017-May-16 21:28N 47°38' W 122°23'2 4.2
2017-May-16 21:00N 47°36' W 122°24'263.5 350 / 51005.6 10.7 5.4
2017-May-16 20:58N 47°38' W 122°23'0 0.0
2017-May-16 20:28N 47°38' W 122°23'2 4.2
2017-May-16 20:00N 47°36' W 122°24'262.9 130 / 41005.0 9.5 5.1
2017-May-16 19:58N 47°38' W 122°23'0 0.0
2017-May-16 19:28N 47°38' W 122°23'2 4.2
2017-May-16 19:00N 47°36' W 122°24'263.5 050 / 31004.5 8.6 5.7
2017-May-16 18:58N 47°38' W 122°23'0 0.0
2017-May-16 18:28N 47°38' W 122°23'2 4.2
2017-May-16 18:00N 47°36' W 122°24'224.2 030 / 41004.4 6.8 6.1
2017-May-16 17:55N 47°38' W 122°23'0 0.0
2017-May-16 17:28N 47°38' W 122°23'2 4.2
2017-May-16 17:00N 47°36' W 122°24'263.5 050 / 71004.1 5.9 5.6
2017-May-16 16:58N 47°38' W 122°23'0 0.0
2017-May-16 16:28N 47°38' W 122°23'2 4.2
2017-May-16 16:00N 47°36' W 122°24'263.5 080 / 51003.6 6.5 5.2
2017-May-16 15:58N 47°38' W 122°23'0 0.0
2017-May-16 15:28N 47°38' W 122°23'2 4.2
2017-May-16 15:00N 47°36' W 122°24'263.5 110 / 51003.0 6.7 6.0
2017-May-16 14:58N 47°38' W 122°23'0 0.0
2017-May-16 14:28N 47°38' W 122°23'2 4.2
2017-May-16 14:00N 47°36' W 122°24'2 3.7 040 / 21002.3 7.2 6.5
2017-May-16 13:28N 47°38' W 122°23'2 4.2
2017-May-16 13:00N 47°36' W 122°24'263.5 020 / 41001.6 7.2 7.2
2017-May-16 12:58N 47°38' W 122°23'0 0.0
2017-May-16 12:28N 47°38' W 122°23'2 4.2
2017-May-16 12:00N 47°36' W 122°24'263.5 200 / 111001.6 9.0 8.5
2017-May-16 11:58N 47°38' W 122°23'0 0.0
2017-May-16 11:28N 47°38' W 122°23'2 4.2
2017-May-16 11:00N 47°36' W 122°24'263.5 180 / 131002.1 8.8 8.5
2017-May-16 10:58N 47°38' W 122°23'0 0.0
2017-May-16 10:28N 47°38' W 122°23'2 4.2
2017-May-16 10:00N 47°36' W 122°24'263.5 180 / 181002.2 8.6 8.1
2017-May-16 09:58N 47°38' W 122°23'0 0.0
2017-May-16 09:28N 47°38' W 122°23'2 4.2
2017-May-16 09:00N 47°36' W 122°24'263.5 180 / 131003.0 9.2 7.7
2017-May-16 08:58N 47°38' W 122°23'0 0.0
2017-May-16 08:28N 47°38' W 122°23'2 4.2
2017-May-16 08:00N 47°36' W 122°24'262.9 150 / 121003.5 8.9 8.4
2017-May-16 07:58N 47°38' W 122°23'0 0.0
2017-May-16 07:28N 47°38' W 122°23'2 4.2
2017-May-16 07:00N 47°36' W 122°24'262.9 150 / 111004.8 8.8 8.4
2017-May-16 06:58N 47°38' W 122°23'0 0.0
2017-May-16 06:28N 47°38' W 122°23'2 4.2
2017-May-16 06:00N 47°36' W 122°24'262.9 170 / 121006.5 8.9 8.2
2017-May-16 05:58N 47°38' W 122°23'0 0.0
2017-May-16 05:28N 47°38' W 122°23'2 4.2
2017-May-16 05:00N 47°36' W 122°24'263.5 160 / 111007.6 9.0 8.7
2017-May-16 04:58N 47°38' W 122°23'0 0.0
2017-May-16 04:28N 47°38' W 122°23'2 4.2
2017-May-16 04:00N 47°36' W 122°24'263.5 160 / 121008.4 9.1 8.4
2017-May-16 03:58N 47°38' W 122°23'0 0.0
2017-May-16 03:28N 47°38' W 122°23'2 4.2
2017-May-16 03:00N 47°36' W 122°24'263.5 160 / 81009.5 8.8 8.7
2017-May-16 02:58N 47°38' W 122°23'0 0.0
2017-May-16 02:28N 47°38' W 122°23'2 4.2
2017-May-16 02:00N 47°36' W 122°24'263.5 170 / 81010.7 8.9 8.3
2017-May-16 01:58N 47°38' W 122°23'0 0.0
2017-May-16 01:25N 47°38' W 122°23'2 4.7
2017-May-16 01:00N 47°36' W 122°24'263.5 200 / 41011.6 9.1 8.5
2017-May-16 00:58N 47°38' W 122°23'0 0.0
2017-May-16 00:28N 47°38' W 122°23'2 4.2
2017-May-16 00:00N 47°36' W 122°24'262.9 190 / 41012.1 8.9 7.7
2017-May-15 23:58N 47°38' W 122°23'0 0.0
2017-May-15 23:28N 47°38' W 122°23'2 4.2
2017-May-15 23:00N 47°36' W 122°24'262.9 200 / 61012.8 9.3 8.0
2017-May-15 22:58N 47°38' W 122°23'0 0.0
2017-May-15 22:25N 47°38' W 122°23'2 4.7
2017-May-15 22:00N 47°36' W 122°24'263.5 200 / 71013.5 9.5 8.3
2017-May-15 21:58N 47°38' W 122°23'0 0.0
2017-May-15 21:28N 47°38' W 122°23'2 4.2
2017-May-15 21:00N 47°36' W 122°24'262.9 200 / 61014.1 9.8 7.7
2017-May-15 20:58N 47°38' W 122°23'0 0.0
2017-May-15 20:28N 47°38' W 122°23'2 4.2
2017-May-15 20:00N 47°36' W 122°24'263.5 200 / 61014.3 9.9 7.2
2017-May-15 19:58N 47°38' W 122°23'0 0.0
2017-May-15 19:28N 47°38' W 122°23'2 4.2
2017-May-15 19:00N 47°36' W 122°24'214.9 200 / 91014.6 10.9 5.3
2017-May-15 18:52N 47°38' W 122°23'0 0.0
2017-May-15 18:28N 47°38' W 122°23'2 4.2
2017-May-15 18:00N 47°36' W 122°24'224.2 200 / 61014.7 11.1 4.6
2017-May-15 17:55N 47°38' W 122°23'0 0.0
2017-May-15 17:28N 47°38' W 122°23'2 4.2
2017-May-15 17:00N 47°36' W 122°24'262.9 200 / 41014.8 11.1 5.6
2017-May-15 16:58N 47°38' W 122°23'0 0.0
2017-May-15 16:25N 47°38' W 122°23'2 4.7
2017-May-15 16:00N 47°36' W 122°24'263.5 200 / 61015.1 10.5 7.1
2017-May-15 15:58N 47°38' W 122°23'0 0.0
2017-May-15 15:28N 47°38' W 122°23'2 4.2
2017-May-15 15:00N 47°36' W 122°24'263.5 200 / 71015.2 10.0 6.8
2017-May-15 14:58N 47°38' W 122°23'2 2.0
2017-May-15 14:00N 47°36' W 122°24'262.9 200 / 41015.1 9.3 7.4
2017-May-15 13:58N 47°38' W 122°23'0 0.0
2017-May-15 13:28N 47°38' W 122°23'2 4.2
2017-May-15 13:00N 47°36' W 122°24'263.5 190 / 51015.2 8.9 7.1
2017-May-15 12:58N 47°38' W 122°23'0 0.0
2017-May-15 12:28N 47°38' W 122°23'0 0.2
2017-May-15 12:00N 47°38' W 122°23'2123.1
2017-May-15 12:00N 47°36' W 122°24'1 3.0 170 / 91015.6 8.9 7.2
2017-May-15 11:30N 47°37' W 122°23'0 0.0
2017-May-15 11:00N 47°37' W 122°23'195.8
2017-May-15 11:00N 47°36' W 122°24'1 2.9 190 / 101015.8 9.1 7.3
2017-May-15 10:30N 47°37' W 122°23'3 6.0
2017-May-15 10:00N 47°37' W 122°28'2137.2
2017-May-15 10:00N 47°36' W 122°30'5 9.9 180 / 141015.7 9.3 8.2
2017-May-15 09:30N 47°41' W 122°28'4 7.1
2017-May-15 09:00N 47°44' W 122°30'2130.0
2017-May-15 09:00N 47°42' W 122°30'2 4.1 110 / 51016.1 9.0 9.0
2017-May-15 08:30N 47°44' W 122°30'0 0.1
2017-May-15 08:00N 47°44' W 122°30'2477.5
2017-May-15 08:00N 47°42' W 122°30'2 4.0 110 / 91016.0 9.2
2017-May-15 07:30N 47°44' W 122°30'2 3.9
2017-May-15 07:00N 47°42' W 122°30'243.5 040 / 121016.0 9.1 9.1
2017-May-15 06:57N 47°44' W 122°30'0 0.1
2017-May-15 06:30N 47°44' W 122°30'0 0.0
2017-May-15 06:00N 47°44' W 122°30'2477.0
2017-May-15 06:00N 47°42' W 122°30'2 4.1 030 / 101015.9 9.3 9.3
2017-May-15 05:30N 47°44' W 122°30'0 0.0
2017-May-15 05:00N 47°44' W 122°30'2488.5
2017-May-15 05:00N 47°42' W 122°30'2 4.1 050 / 41015.7 9.9
2017-May-15 04:30N 47°44' W 122°30'2 4.0
2017-May-15 04:00N 47°42' W 122°30'221.2 300 / 51015.3 10.410.4
2017-May-15 03:54N 47°44' W 122°30'0 0.0
2017-May-15 03:30N 47°44' W 122°30'0 0.0
2017-May-15 03:00N 47°44' W 122°30'2487.1
2017-May-15 03:00N 47°42' W 122°30'2 4.1 030 / 41014.8 10.610.4
2017-May-15 02:30N 47°44' W 122°30'2 4.1
2017-May-15 02:00N 47°42' W 122°30'244.8 170 / 121014.4 11.6 9.5
2017-May-15 01:57N 47°44' W 122°30'0 0.0
2017-May-15 01:27N 47°44' W 122°30'0 0.1
2017-May-15 01:00N 47°44' W 122°30'2489.0
2017-May-15 01:00N 47°42' W 122°30'2 4.2 120 / 101014.6 11.0 9.0
2017-May-15 00:30N 47°44' W 122°30'2 4.1
2017-May-15 00:00N 47°42' W 122°30'245.1 200 / 51014.8 10.9 9.5
2017-May-14 23:57N 47°44' W 122°30'0 0.1
2017-May-14 23:30N 47°44' W 122°30'0 0.0
2017-May-14 23:00N 47°44' W 122°30'2486.8
2017-May-14 23:00N 47°42' W 122°30'2 4.2 140 / 31015.1 10.5 9.0
2017-May-14 22:30N 47°44' W 122°30'0 1.0
2017-May-14 22:00N 47°44' W 122°30'297.4
2017-May-14 22:00N 47°42' W 122°30'2 5.0 180 / 131015.0 11.2 8.0
2017-May-14 21:31N 47°43' W 122°27'510.2
2017-May-14 21:01N 47°38' W 122°27'3172.5
2017-May-14 21:00N 47°36' W 122°30'611.9 170 / 161015.0 12.1 8.0
2017-May-14 20:30N 47°36' W 122°21'2 3.3
2017-May-14 20:00N 47°36' W 122°24'2270.6 180 / 41015.4 12.9 6.2
2017-May-14 19:59N 47°35' W 122°21'0 0.0
2017-May-14 19:29N 47°35' W 122°21'2 4.1
2017-May-14 19:00N 47°36' W 122°24'2292.2 160 / 41015.8 12.0 6.9
2017-May-14 18:59N 47°35' W 122°21'0 0.0
2017-May-14 18:29N 47°35' W 122°21'2 4.1
2017-May-14 18:00N 47°36' W 122°24'235.3 160 / 61015.9 11.1 7.2
2017-May-14 17:56N 47°35' W 122°21'0 0.0
2017-May-14 17:29N 47°35' W 122°21'2 4.1
2017-May-14 17:00N 47°36' W 122°24'2281.0 160 / 31015.9 9.8 7.3
2017-May-14 16:59N 47°35' W 122°21'0 0.4
2017-May-14 16:31N 47°35' W 122°21'2 3.6
2017-May-14 16:00N 47°36' W 122°24'270.0 160 / 61016.0 9.3 6.8
2017-May-14 15:58N 47°35' W 122°22'0 0.0
2017-May-14 15:28N 47°35' W 122°22'2 3.9
2017-May-14 15:00N 47°36' W 122°24'269.3 160 / 51015.8 9.3 7.6
2017-May-14 14:58N 47°35' W 122°22'0 0.0
2017-May-14 14:28N 47°35' W 122°22'2 3.9
2017-May-14 14:00N 47°36' W 122°24'   160 / 31015.7 9.1 7.8
Track history (hours):
 
Tides and Currents Weather Stations Pressure Air Temp Water Temp Dewpoint Dewpoint Depression Visibility Wind Speed Wind Dir Waves Ship Positions

Oceanographic research ship Sikuliaq (USA)

Owner: Mackay Communications, Raleigh, NC. More information available from US FCC via Universal Licensing System.

Last reported at 2017-May-24 14:00 UTC. Time now 2017-May-24 15:26 UTC.
Position N 53°06' W 157°00'.

Length 79 m; draft 5.5 m.

Type: Other ship. MMSI: 338417000.

Wind from 200 at 31 knots

Barometer 1021.2 mb
Air temperature 6.8 ° C
Water temperature 6.4 ° C

Date/timePositionNaut miles runAvg speedWind from/ knotsBaromVisibWave heightAir tempDewpointWater temp
2017-May-24 14:00N 53°06' W 157°00'7 7.2 200 / 311021.2 6.8 6.4
2017-May-24 13:00N 53°06' W 156°48'9 9.4 200 / 331021.9 6.9 6.3
2017-May-24 12:00N 53°00' W 156°36'1110.8 200 / 331022.8 6.8 6.4
2017-May-24 11:00N 53°00' W 156°18'9 9.4 200 / 361023.6 6.9 6.9 6.3
2017-May-24 10:00N 52°54' W 156°06'7 7.2 200 / 331024.2 6.9 6.9 6.4
2017-May-24 09:00N 52°54' W 155°54'7 7.2 200 / 301025.2 6.9 6.9 6.3
2017-May-24 08:00N 52°54' W 155°42'1212.4 200 / 281025.8 6.8 6.8 6.3
2017-May-24 07:00N 52°48' W 155°24'7 7.3 200 / 301026.5 6.8 6.8 6.5
2017-May-24 06:00N 52°48' W 155°12'9 9.4 210 / 301027.2 6.8 6.8 6.4
2017-May-24 05:00N 52°42' W 155°00'1110.9 210 / 281028.0 6.7 6.7 6.4
2017-May-24 04:00N 52°42' W 154°42'7 7.3 210 / 281028.5 6.6 6.6 6.4
2017-May-24 03:00N 52°42' W 154°30'9 9.4 210 / 271029.1 6.6 6.3 6.4
2017-May-24 02:00N 52°36' W 154°18'7 7.3 210 / 301029.3 6.5 5.7 6.2
2017-May-24 01:00N 52°36' W 154°06'9 9.4 220 / 291029.8 6.5 5.5 6.4
2017-May-24 00:00N 52°30' W 153°54'1111.0 220 / 251030.5 6.5 5.6 6.3
2017-May-23 23:00N 52°30' W 153°36'7 7.3 220 / 261031.0 6.6 5.1 6.4
2017-May-23 22:00N 52°30' W 153°24'9 9.5 220 / 231031.5 6.5 5.3 6.4
2017-May-23 21:00N 52°24' W 153°12'1111.0 220 / 241031.6 6.3 5.4 6.5
2017-May-23 20:00N 52°24' W 152°54'9 9.5 220 / 221031.7 6.4 5.5 6.4
2017-May-23 19:00N 52°18' W 152°42'1111.0 230 / 221032.0 6.4 5.0 6.4
2017-May-23 18:00N 52°18' W 152°24'9 9.5 240 / 191031.9 6.1 5.0 6.4
2017-May-23 17:00N 52°12' W 152°12'1111.0 240 / 211031.8 6.2 5.3 6.5
2017-May-23 16:00N 52°12' W 151°54'7 7.4 250 / 201031.4 6.3 5.6 6.4
2017-May-23 15:00N 52°12' W 151°42'1312.6 250 / 191030.9 6.2 5.8 6.5
2017-May-23 14:00N 52°06' W 151°24'7 7.4 260 / 181030.6 6.2 5.8 6.5
2017-May-23 13:00N 52°06' W 151°12'10 9.5 280 / 141030.0 6.4 5.6 6.4
2017-May-23 12:00N 52°00' W 151°00'7 7.4 290 / 161029.6 6.5 5.3 6.6
2017-May-23 11:00N 52°00' W 150°48'1312.6 300 / 201028.9 6.6 5.9 6.6
2017-May-23 10:00N 51°54' W 150°30'7 7.4 300 / 191027.9 6.7 6.0 6.4
2017-May-23 09:00N 51°54' W 150°18'7 7.4 300 / 191026.7 6.8 6.3 6.5
2017-May-23 08:00N 51°54' W 150°06'10 9.5 300 / 261025.3 6.5 6.3 6.5
2017-May-23 07:00N 51°48' W 149°54'7 7.4 300 / 251023.7 6.9 5.9 6.5
2017-May-23 06:00N 51°48' W 149°42'1111.1 300 / 271022.0 6.9 5.7 6.8
2017-May-23 05:00N 51°48' W 149°24'10 9.5 300 / 271020.6 6.7 6.3 6.7
2017-May-23 04:00N 51°42' W 149°12'7 7.4 290 / 281019.6 6.8 6.4 6.9
2017-May-23 03:00N 51°42' W 149°00'10 9.6 290 / 291018.1 7.1 5.7 7.0
2017-May-23 02:00N 51°36' W 148°48'1111.2 280 / 271017.1 7.0 5.9 7.0
2017-May-23 01:00N 51°36' W 148°30'1111.2 280 / 231016.5 6.7 5.5 7.1
2017-May-23 00:00N 51°36' W 148°12'10 9.6 270 / 241016.1 7.1 6.0 7.2
2017-May-22 23:00N 51°30' W 148°00'1111.2 260 / 171015.6 6.5 6.5 7.3
2017-May-22 22:00N 51°30' W 147°42'1111.2 260 / 181015.2 6.5 5.8 7.3
2017-May-22 21:00N 51°30' W 147°24'10 9.6 270 / 181014.9 6.6 5.9 7.3
2017-May-22 20:00N 51°24' W 147°12'1111.2 280 / 121014.3 6.5 7.3
2017-May-22 19:00N 51°24' W 146°54'1111.2 300 / 151013.7 6.3 7.3
2017-May-22 18:00N 51°24' W 146°36'1312.7 300 / 191012.8 6.8 7.4
2017-May-22 17:00N 51°18' W 146°18'8 7.5 200 / 161012.7 7.4 7.5
2017-May-22 16:00N 51°18' W 146°06'1111.3 200 / 171013.1 7.2 7.4
2017-May-22 15:00N 51°18' W 145°48'1312.8 190 / 141013.4 7.3 7.4
2017-May-22 14:00N 51°12' W 145°30'8 7.5 180 / 151013.9 7.2 7.2
2017-May-22 13:00N 51°12' W 145°18'1312.8 180 / 131014.0 7.1 7.3
2017-May-22 12:00N 51°06' W 145°00'8 7.5 190 / 101014.6 6.9 7.2
2017-May-22 11:00N 51°06' W 144°48'1111.3 200 / 151015.1 6.6 7.1
2017-May-22 10:00N 51°06' W 144°30'1312.8 220 / 111015.2 7.3 7.2
2017-May-22 09:00N 51°00' W 144°12'1111.3 190 / 111015.2 7.3 7.1
2017-May-22 08:00N 51°00' W 143°54'1111.3 180 / 121015.3 7.4 7.2
2017-May-22 07:00N 51°00' W 143°36'10 9.7 180 / 121015.6 7.5 7.3
2017-May-22 06:00N 50°54' W 143°24'1111.4 180 / 121015.6 7.4 7.2
2017-May-22 05:00N 50°54' W 143°06'1111.4 190 / 121015.1 7.5 7.2
2017-May-22 04:00N 50°54' W 142°48'10 9.7 190 / 141014.8 7.9 7.2
2017-May-22 03:00N 50°48' W 142°36'1111.4 180 / 171014.4 8.0 7.3
2017-May-22 02:00N 50°48' W 142°18'1312.9 180 / 151014.3 8.1 7.4
2017-May-22 01:00N 50°42' W 142°00'4 3.8 170 / 161014.2 8.4 7.8
2017-May-22 00:00N 50°42' W 141°54'4 3.8 190 / 121014.8 8.6 7.5
2017-May-21 23:00N 50°42' W 141°48'10 9.7 190 / 151014.0 8.5 7.5
2017-May-21 22:00N 50°36' W 141°36'1312.9 200 / 181013.9 8.5 7.6
2017-May-21 21:00N 50°30' W 141°18'8 7.6 190 / 181013.7 8.3 7.5
2017-May-21 20:00N 50°30' W 141°06'10 9.7 180 / 201013.4 8.2 7.3
2017-May-21 19:00N 50°24' W 140°54'10 9.7 190 / 181013.0 8.2 7.2
2017-May-21 18:00N 50°18' W 140°42'1313.0 200 / 171012.6 7.9 7.3
2017-May-21 17:00N 50°12' W 140°24'10 9.8 210 / 211011.8 8.4 7.7
2017-May-21 16:00N 50°06' W 140°12'8 7.7 200 / 191011.5 8.2 7.8
2017-May-21 15:00N 50°06' W 140°00'8 7.7 210 / 221010.4 8.7 7.9
2017-May-21 14:00N 50°06' W 139°48'10 9.8 200 / 261009.6 8.9 8.0
2017-May-21 13:00N 50°00' W 139°36'1211.6 190 / 301008.9 9.2 7.9
2017-May-21 12:00N 50°00' W 139°18'4 3.9 190 / 331008.6 9.5 7.9
2017-May-21 11:00N 50°00' W 139°12'8 7.7 180 / 341008.3 9.6 7.9
2017-May-21 10:00N 50°00' W 139°00'1313.0 180 / 381008.7 9.8 7.9
2017-May-21 09:00N 49°54' W 138°42'8 7.7 180 / 361009.2 9.5 8.0
2017-May-21 08:00N 49°54' W 138°30'8 7.7 170 / 331009.8 9.6 8.0
2017-May-21 07:00N 49°54' W 138°18'8 7.7 170 / 341010.8 9.5 8.0
2017-May-21 06:00N 49°54' W 138°06'1313.1 170 / 341011.7 9.7 8.1
2017-May-21 05:00N 49°48' W 137°48'8 7.7 170 / 321012.4 9.6 8.1
2017-May-21 04:00N 49°48' W 137°36'1211.6 180 / 311013.0 9.7 8.2
2017-May-21 03:00N 49°48' W 137°18'10 9.8 170 / 311013.9 9.6 8.1
2017-May-21 02:00N 49°42' W 137°06'8 7.8 180 / 291014.6 9.7 8.3
2017-May-21 01:00N 49°42' W 136°54'1211.6 180 / 271015.5 9.6 8.3
2017-May-21 00:00N 49°42' W 136°36'10 9.8 180 / 301016.0 9.7 8.3
2017-May-20 23:00N 49°36' W 136°24'8 7.8 180 / 291016.7 9.9 8.3
2017-May-20 22:00N 49°36' W 136°12'1211.7 180 / 271017.5 10.110.1 8.4
2017-May-20 21:00N 49°36' W 135°54'1211.7 180 / 281017.9 10.310.1 8.5
2017-May-20 20:00N 49°36' W 135°36'10 9.8 170 / 271018.6 10.310.2 8.7
2017-May-20 19:00N 49°30' W 135°24'1211.7 180 / 241019.3 10.210.2 8.6
2017-May-20 18:00N 49°30' W 135°06'2311.7 170 / 221019.7 10.1
2017-May-20 16:00N 49°30' W 134°30'8 7.8 180 / 181020.6 9.3
2017-May-20 15:00N 49°30' W 134°18'1313.2 170 / 181020.9 9.0
2017-May-20 14:00N 49°24' W 134°00'1211.7 170 / 181021.2 8.8
2017-May-20 13:00N 49°24' W 133°42'8 7.8 160 / 171021.4 8.2
2017-May-20 12:00N 49°24' W 133°30'1211.7 180 / 181022.3 7.6
2017-May-20 11:00N 49°24' W 133°12'1211.7 180 / 91022.4 8.2
2017-May-20 10:00N 49°24' W 132°54'7 7.2 200 / 81022.7 8.5
2017-May-20 09:00N 49°18' W 132°48'1211.7 240 / 41023.1 8.3
2017-May-20 08:00N 49°18' W 132°30'1313.2 230 / 81023.2 8.5
2017-May-20 07:00N 49°12' W 132°12'1211.8 310 / 61023.0 8.7
2017-May-20 06:00N 49°12' W 131°54'8 7.8 260 / 71022.9 8.7
2017-May-20 05:00N 49°12' W 131°42'1211.8 310 / 51022.6 8.4
2017-May-20 04:00N 49°12' W 131°24'1313.2 310 / 51021.9 8.4
2017-May-20 03:00N 49°06' W 131°06'5110.3 280 / 51021.9 9.5
2017-May-19 22:00N 49°00' W 129°48'1211.8 250 / 91021.0 9.6
2017-May-19 21:00N 49°00' W 129°30'1313.3 240 / 111021.0 9.6
2017-May-19 20:00N 48°54' W 129°12'1211.8 200 / 41020.7 9.7
2017-May-19 19:00N 48°54' W 128°54'8 7.9 210 / 51020.7 10.010.0
2017-May-19 18:00N 48°54' W 128°42'1211.8 240 / 41020.3 9.9
2017-May-19 17:00N 48°54' W 128°24'2110.3 280 / 51020.3 9.8
2017-May-19 15:00N 48°48' W 127°54'1211.9 140 / 91019.7 10.3
2017-May-19 14:00N 48°48' W 127°36'10 9.9 130 / 111019.6 10.1
2017-May-19 13:00N 48°42' W 127°24'1211.9 140 / 101019.5 10.0
2017-May-19 12:00N 48°42' W 127°06'1211.9 130 / 61019.8 10.5
2017-May-19 11:00N 48°42' W 126°48'2 7.7 130 / 61020.0 10.710.7
2017-May-19 10:41N 48°41' W 126°45'311.4
2017-May-19 10:26N 48°41' W 126°40'715.7
2017-May-19 10:00N 48°42' W 126°30'230.0 130 / 71020.0 10.810.4
2017-May-19 09:55N 48°40' W 126°32'410.7
2017-May-19 09:30N 48°39' W 126°25'510.7
2017-May-19 09:00N 48°39' W 126°17'3187.7
2017-May-19 09:00N 48°36' W 126°18'612.3 130 / 51020.2 10.810.0
2017-May-19 08:30N 48°38' W 126°09'612.4
2017-May-19 08:00N 48°36' W 126°00'1178.3 160 / 21020.7 10.710.2
2017-May-19 07:59N 48°36' W 126°01'510.3
2017-May-19 07:30N 48°36' W 125°54'510.1
2017-May-19 07:01N 48°36' W 125°46'170.4
2017-May-19 07:00N 48°36' W 125°48'613.4 270 / 11020.7 10.8 9.7
2017-May-19 06:30N 48°35' W 125°38'510.6
2017-May-19 06:00N 48°34' W 125°30'2129.6
2017-May-19 06:00N 48°36' W 125°30'611.8 330 / 11020.6 11.2 8.9
2017-May-19 05:30N 48°33' W 125°23'610.9
2017-May-19 05:00N 48°32' W 125°14'3320.7
2017-May-19 05:00N 48°30' W 125°12'4 8.1 340 / 21020.5 11.3 9.0
2017-May-19 04:30N 48°32' W 125°07'510.1
2017-May-19 04:00N 48°32' W 124°59'2224.7
2017-May-19 04:00N 48°30' W 125°00'612.2 340 / 61020.2 11.1 9.4
2017-May-19 03:30N 48°32' W 124°51'5 9.7
2017-May-19 03:01N 48°31' W 124°44'2106.4
2017-May-19 03:00N 48°30' W 124°42'3 6.5 320 / 61020.2 11.3 9.8
2017-May-19 02:30N 48°29' W 124°37'5 9.9
2017-May-19 02:00N 48°27' W 124°31'3179.2
2017-May-19 02:00N 48°30' W 124°30'713.2 300 / 91020.2 11.110.3
2017-May-19 01:30N 48°25' W 124°24'510.1
2017-May-19 01:00N 48°23' W 124°17'190.9
2017-May-19 01:00N 48°24' W 124°18'612.6 300 / 121020.6 11.210.4
2017-May-19 00:30N 48°21' W 124°10'510.6
2017-May-19 00:00N 48°19' W 124°02'2381.9
2017-May-19 00:00N 48°18' W 124°00'4 7.7 350 / 61020.7 11.510.3
2017-May-18 23:30N 48°18' W 123°54'610.8
2017-May-18 23:00N 48°17' W 123°46'2673.1
2017-May-18 23:00N 48°18' W 123°48'714.9 130 / 31021.0 11.5 7.3
2017-May-18 22:30N 48°16' W 123°37'612.2
2017-May-18 22:00N 48°15' W 123°28'3510.1
2017-May-18 22:00N 48°18' W 123°30'816.2 010 / 21021.3 11.9 8.8
2017-May-18 21:30N 48°14' W 123°20'611.9
2017-May-18 21:00N 48°13' W 123°11'187.9
2017-May-18 21:00N 48°12' W 123°12'713.6 330 / 41021.8 11.5 9.2
2017-May-18 20:30N 48°13' W 123°02'611.9
2017-May-18 20:00N 48°12' W 122°53'131.8
2017-May-18 20:00N 48°12' W 122°54'613.2 350 / 71021.7 10.9 9.8
2017-May-18 19:30N 48°10' W 122°45'714.0
2017-May-18 19:00N 48°06' W 122°36'415.0 320 1021.8 11.4 9.4
2017-May-18 18:45N 48°03' W 122°38'311.9
2017-May-18 18:30N 47°60' W 122°36'611.3
2017-May-18 18:01N 47°56' W 122°30'2133.9
2017-May-18 18:00N 47°54' W 122°30'3 6.6 170 / 71021.9 11.3 9.8
2017-May-18 17:31N 47°51' W 122°27'510.6
2017-May-18 17:01N 47°46' W 122°26'2126.5
2017-May-18 17:00N 47°48' W 122°24'714.9 210 / 61022.2 10.1 9.2
2017-May-18 16:30N 47°41' W 122°27'4 8.0
2017-May-18 16:00N 47°37' W 122°25'183.7
2017-May-18 16:00N 47°36' W 122°24'2 3.7 200 / 81022.1 9.6 8.6
2017-May-18 15:28N 47°38' W 122°23'2 4.2
2017-May-18 15:00N 47°36' W 122°24'263.5 220 / 41022.3 9.6 8.8
2017-May-18 14:58N 47°38' W 122°23'0 0.0
2017-May-18 14:28N 47°38' W 122°23'2 4.2
2017-May-18 14:00N 47°36' W 122°24'2 3.7 220 / 41022.1 9.7 9.0
2017-May-18 13:28N 47°38' W 122°23'2 4.2
2017-May-18 13:00N 47°36' W 122°24'263.5 200 / 31021.7 9.5 8.6
2017-May-18 12:58N 47°38' W 122°23'0 0.0
2017-May-18 12:28N 47°38' W 122°23'2 4.2
2017-May-18 12:00N 47°36' W 122°24'263.5 210 / 31022.0 9.9 8.8
2017-May-18 11:58N 47°38' W 122°23'0 0.0
2017-May-18 11:28N 47°38' W 122°23'2 4.2
2017-May-18 11:00N 47°36' W 122°24'263.5 180 / 31022.0 10.2 8.5
2017-May-18 10:58N 47°38' W 122°23'0 0.0
2017-May-18 10:28N 47°38' W 122°23'2 4.2
2017-May-18 10:00N 47°36' W 122°24'263.5 170 / 41021.7 10.7 8.4
2017-May-18 09:58N 47°38' W 122°23'0 0.0
2017-May-18 09:28N 47°38' W 122°23'2 4.2
2017-May-18 09:00N 47°36' W 122°24'262.9 170 / 41021.8 11.1 8.5
2017-May-18 08:58N 47°38' W 122°23'0 0.0
2017-May-18 08:28N 47°38' W 122°23'2 4.2
2017-May-18 08:00N 47°36' W 122°24'263.5 160 / 41021.8 11.3 9.1
2017-May-18 07:58N 47°38' W 122°23'0 0.0
2017-May-18 07:28N 47°38' W 122°23'2 4.2
2017-May-18 07:00N 47°36' W 122°24'263.5 190 / 41021.9 11.6 9.3
2017-May-18 06:58N 47°38' W 122°23'0 0.0
2017-May-18 06:28N 47°38' W 122°23'2 4.2
2017-May-18 06:00N 47°36' W 122°24'263.5 190 / 31022.0 11.9 9.7
2017-May-18 05:58N 47°38' W 122°23'0 0.0
2017-May-18 05:28N 47°38' W 122°23'2 4.2
2017-May-18 05:00N 47°36' W 122°24'263.5 200 / 31022.0 12.110.0
2017-May-18 04:58N 47°38' W 122°23'0 0.0
2017-May-18 04:28N 47°38' W 122°23'2 4.2
2017-May-18 04:00N 47°36' W 122°24'263.5 200 / 51021.6 12.7 9.9
2017-May-18 03:58N 47°38' W 122°23'0 0.0
2017-May-18 03:28N 47°38' W 122°23'2 4.2
2017-May-18 03:00N 47°36' W 122°24'263.5 200 / 51021.5 13.1 9.5
2017-May-18 02:58N 47°38' W 122°23'0 0.0
2017-May-18 02:28N 47°38' W 122°23'2 4.2
2017-May-18 02:00N 47°36' W 122°24'262.9 230 / 31021.5 12.9 9.8
2017-May-18 01:58N 47°38' W 122°23'0 0.0
2017-May-18 01:28N 47°38' W 122°23'2 4.2
2017-May-18 01:00N 47°36' W 122°24'263.5 230 / 41021.7 13.1 9.1
2017-May-18 00:58N 47°38' W 122°23'0 0.0
2017-May-18 00:28N 47°38' W 122°23'2 4.2
2017-May-18 00:00N 47°36' W 122°24'263.5 220 / 41021.7 13.7 9.0
2017-May-17 23:58N 47°38' W 122°23'0 0.0
2017-May-17 23:28N 47°38' W 122°23'2 4.2
2017-May-17 23:00N 47°36' W 122°24'263.5 230 / 41021.6 13.0 9.4
2017-May-17 22:58N 47°38' W 122°23'0 0.0
2017-May-17 22:28N 47°38' W 122°23'2 4.2
2017-May-17 22:00N 47°36' W 122°24'263.5 250 / 41021.3 13.2 9.9
2017-May-17 21:58N 47°38' W 122°23'0 0.0
2017-May-17 21:28N 47°38' W 122°23'2 4.2
2017-May-17 21:00N 47°36' W 122°24'263.5 240 / 51021.2 12.7 8.3
2017-May-17 20:58N 47°38' W 122°23'0 0.0
2017-May-17 20:28N 47°38' W 122°23'2 4.2
2017-May-17 20:00N 47°36' W 122°24'263.5 180 / 41021.1 13.2 8.3
2017-May-17 19:58N 47°38' W 122°23'0 0.0
2017-May-17 19:28N 47°38' W 122°23'2 4.2
2017-May-17 19:00N 47°36' W 122°24'262.9 180 / 51020.9 11.5 8.1
2017-May-17 18:58N 47°38' W 122°23'0 0.0
2017-May-17 18:28N 47°38' W 122°23'2 4.2
2017-May-17 18:00N 47°36' W 122°24'263.5 180 / 21020.5 10.8 7.9
2017-May-17 17:58N 47°38' W 122°23'0 0.0
2017-May-17 17:28N 47°38' W 122°23'2 4.2
2017-May-17 17:00N 47°36' W 122°24'263.5 240 / 51019.9 9.7 8.6
2017-May-17 16:58N 47°38' W 122°23'0 0.0
2017-May-17 16:28N 47°38' W 122°23'2 4.2
2017-May-17 16:00N 47°36' W 122°24'263.5 220 / 51019.2 9.7 8.4
2017-May-17 15:58N 47°38' W 122°23'0 0.0
2017-May-17 15:28N 47°38' W 122°23'2 4.2
2017-May-17 15:00N 47°36' W 122°24'263.5 150 / 41018.5 9.2 7.6
2017-May-17 14:58N 47°38' W 122°23'2 2.0
2017-May-17 14:00N 47°36' W 122°24'263.5 150 / 51017.7 8.9 7.4
2017-May-17 13:58N 47°38' W 122°23'0 0.0
2017-May-17 13:28N 47°38' W 122°23'2 4.2
2017-May-17 13:00N 47°36' W 122°24'263.5 150 / 71017.1 8.7 7.1
2017-May-17 12:58N 47°38' W 122°23'0 0.0
2017-May-17 12:28N 47°38' W 122°23'2 4.2
2017-May-17 12:00N 47°36' W 122°24'263.5 150 / 51016.5 8.7 7.0
2017-May-17 11:58N 47°38' W 122°23'0 0.0
2017-May-17 11:28N 47°38' W 122°23'2 4.2
2017-May-17 11:00N 47°36' W 122°24'224.2 140 / 51016.1 8.6 6.9
2017-May-17 10:55N 47°38' W 122°23'0 0.0
2017-May-17 10:28N 47°38' W 122°23'2 4.2
2017-May-17 10:00N 47°36' W 122°24'263.5 150 / 61015.4 8.6 6.9
2017-May-17 09:58N 47°38' W 122°23'0 0.0
2017-May-17 09:28N 47°38' W 122°23'2 4.2
2017-May-17 09:00N 47°36' W 122°24'262.9 150 / 81014.3 8.6 7.1
2017-May-17 08:58N 47°38' W 122°23'0 0.0
2017-May-17 08:28N 47°38' W 122°23'2 4.2
2017-May-17 08:00N 47°36' W 122°24'262.9 150 / 81013.7 8.7 7.1
2017-May-17 07:58N 47°38' W 122°23'0 0.0
2017-May-17 07:28N 47°38' W 122°23'2 4.2
2017-May-17 07:00N 47°36' W 122°24'263.5 140 / 61012.8 8.8 7.8
2017-May-17 06:58N 47°38' W 122°23'0 0.0
2017-May-17 06:25N 47°38' W 122°23'2 4.7
2017-May-17 06:00N 47°36' W 122°24'263.5 140 / 61012.1 9.2 8.0
2017-May-17 05:58N 47°38' W 122°23'0 0.0
2017-May-17 05:28N 47°38' W 122°23'2 4.2
2017-May-17 05:00N 47°36' W 122°24'224.2 150 / 71011.4 9.9 8.5
2017-May-17 04:55N 47°38' W 122°23'0 0.0
2017-May-17 04:28N 47°38' W 122°23'2 4.2
2017-May-17 04:00N 47°36' W 122°24'263.5 200 / 31010.5 10.2 7.2
2017-May-17 03:58N 47°38' W 122°23'0 0.0
2017-May-17 03:28N 47°38' W 122°23'2 4.2
2017-May-17 03:00N 47°36' W 122°24'262.9 220 / 51009.7 10.3 7.0
2017-May-17 02:58N 47°38' W 122°23'0 0.0
2017-May-17 02:28N 47°38' W 122°23'2 4.2
2017-May-17 02:00N 47°36' W 122°24'263.5 230 / 71009.2 10.4 7.8
2017-May-17 01:58N 47°38' W 122°23'0 0.0
2017-May-17 01:28N 47°38' W 122°23'2 4.2
2017-May-17 01:00N 47°36' W 122°24'263.5 230 / 41008.5 10.8 5.3
2017-May-17 00:58N 47°38' W 122°23'0 0.0
2017-May-17 00:25N 47°38' W 122°23'2 4.7
2017-May-17 00:00N 47°36' W 122°24'262.9 270 / 41007.6 11.1 5.0
2017-May-16 23:58N 47°38' W 122°23'0 0.0
2017-May-16 23:28N 47°38' W 122°23'2 4.2
2017-May-16 23:00N 47°36' W 122°24'263.5 250 / 51006.9 10.5 5.2
2017-May-16 22:58N 47°38' W 122°23'0 0.0
2017-May-16 22:28N 47°38' W 122°23'2 4.2
2017-May-16 22:00N 47°36' W 122°24'263.5 250 / 41006.1 10.5 5.3
2017-May-16 21:58N 47°38' W 122°23'0 0.0
2017-May-16 21:28N 47°38' W 122°23'2 4.2
2017-May-16 21:00N 47°36' W 122°24'263.5 350 / 51005.6 10.7 5.4
2017-May-16 20:58N 47°38' W 122°23'0 0.0
2017-May-16 20:28N 47°38' W 122°23'2 4.2
2017-May-16 20:00N 47°36' W 122°24'262.9 130 / 41005.0 9.5 5.1
2017-May-16 19:58N 47°38' W 122°23'0 0.0
2017-May-16 19:28N 47°38' W 122°23'2 4.2
2017-May-16 19:00N 47°36' W 122°24'263.5 050 / 31004.5 8.6 5.7
2017-May-16 18:58N 47°38' W 122°23'0 0.0
2017-May-16 18:28N 47°38' W 122°23'2 4.2
2017-May-16 18:00N 47°36' W 122°24'224.2 030 / 41004.4 6.8 6.1
2017-May-16 17:55N 47°38' W 122°23'0 0.0
2017-May-16 17:28N 47°38' W 122°23'2 4.2
2017-May-16 17:00N 47°36' W 122°24'263.5 050 / 71004.1 5.9 5.6
2017-May-16 16:58N 47°38' W 122°23'0 0.0
2017-May-16 16:28N 47°38' W 122°23'2 4.2
2017-May-16 16:00N 47°36' W 122°24'263.5 080 / 51003.6 6.5 5.2
2017-May-16 15:58N 47°38' W 122°23'0 0.0
2017-May-16 15:28N 47°38' W 122°23'2 4.2
2017-May-16 15:00N 47°36' W 122°24'263.5 110 / 51003.0 6.7 6.0
2017-May-16 14:58N 47°38' W 122°23'0 0.0
2017-May-16 14:28N 47°38' W 122°23'2 4.2
2017-May-16 14:00N 47°36' W 122°24'2 3.7 040 / 21002.3 7.2 6.5
2017-May-16 13:28N 47°38' W 122°23'2 4.2
2017-May-16 13:00N 47°36' W 122°24'263.5 020 / 41001.6 7.2 7.2
2017-May-16 12:58N 47°38' W 122°23'0 0.0
2017-May-16 12:28N 47°38' W 122°23'2 4.2
2017-May-16 12:00N 47°36' W 122°24'263.5 200 / 111001.6 9.0 8.5
2017-May-16 11:58N 47°38' W 122°23'0 0.0
2017-May-16 11:28N 47°38' W 122°23'2 4.2
2017-May-16 11:00N 47°36' W 122°24'263.5 180 / 131002.1 8.8 8.5
2017-May-16 10:58N 47°38' W 122°23'0 0.0
2017-May-16 10:28N 47°38' W 122°23'2 4.2
2017-May-16 10:00N 47°36' W 122°24'263.5 180 / 181002.2 8.6 8.1
2017-May-16 09:58N 47°38' W 122°23'0 0.0
2017-May-16 09:28N 47°38' W 122°23'2 4.2
2017-May-16 09:00N 47°36' W 122°24'263.5 180 / 131003.0 9.2 7.7
2017-May-16 08:58N 47°38' W 122°23'0 0.0
2017-May-16 08:28N 47°38' W 122°23'2 4.2
2017-May-16 08:00N 47°36' W 122°24'262.9 150 / 121003.5 8.9 8.4
2017-May-16 07:58N 47°38' W 122°23'0 0.0
2017-May-16 07:28N 47°38' W 122°23'2 4.2
2017-May-16 07:00N 47°36' W 122°24'262.9 150 / 111004.8 8.8 8.4
2017-May-16 06:58N 47°38' W 122°23'0 0.0
2017-May-16 06:28N 47°38' W 122°23'2 4.2
2017-May-16 06:00N 47°36' W 122°24'262.9 170 / 121006.5 8.9 8.2
2017-May-16 05:58N 47°38' W 122°23'0 0.0
2017-May-16 05:28N 47°38' W 122°23'2 4.2
2017-May-16 05:00N 47°36' W 122°24'263.5 160 / 111007.6 9.0 8.7
2017-May-16 04:58N 47°38' W 122°23'0 0.0
2017-May-16 04:28N 47°38' W 122°23'2 4.2
2017-May-16 04:00N 47°36' W 122°24'263.5 160 / 121008.4 9.1 8.4
2017-May-16 03:58N 47°38' W 122°23'0 0.0
2017-May-16 03:28N 47°38' W 122°23'2 4.2
2017-May-16 03:00N 47°36' W 122°24'263.5 160 / 81009.5 8.8 8.7
2017-May-16 02:58N 47°38' W 122°23'0 0.0
2017-May-16 02:28N 47°38' W 122°23'2 4.2
2017-May-16 02:00N 47°36' W 122°24'263.5 170 / 81010.7 8.9 8.3
2017-May-16 01:58N 47°38' W 122°23'0 0.0
2017-May-16 01:25N 47°38' W 122°23'2 4.7
2017-May-16 01:00N 47°36' W 122°24'263.5 200 / 41011.6 9.1 8.5
2017-May-16 00:58N 47°38' W 122°23'0 0.0
2017-May-16 00:28N 47°38' W 122°23'2 4.2
2017-May-16 00:00N 47°36' W 122°24'262.9 190 / 41012.1 8.9 7.7
2017-May-15 23:58N 47°38' W 122°23'0 0.0
2017-May-15 23:28N 47°38' W 122°23'2 4.2
2017-May-15 23:00N 47°36' W 122°24'262.9 200 / 61012.8 9.3 8.0
2017-May-15 22:58N 47°38' W 122°23'0 0.0
2017-May-15 22:25N 47°38' W 122°23'2 4.7
2017-May-15 22:00N 47°36' W 122°24'263.5 200 / 71013.5 9.5 8.3
2017-May-15 21:58N 47°38' W 122°23'0 0.0
2017-May-15 21:28N 47°38' W 122°23'2 4.2
2017-May-15 21:00N 47°36' W 122°24'262.9 200 / 61014.1 9.8 7.7
2017-May-15 20:58N 47°38' W 122°23'0 0.0
2017-May-15 20:28N 47°38' W 122°23'2 4.2
2017-May-15 20:00N 47°36' W 122°24'263.5 200 / 61014.3 9.9 7.2
2017-May-15 19:58N 47°38' W 122°23'0 0.0
2017-May-15 19:28N 47°38' W 122°23'2 4.2
2017-May-15 19:00N 47°36' W 122°24'214.9 200 / 91014.6 10.9 5.3
2017-May-15 18:52N 47°38' W 122°23'0 0.0
2017-May-15 18:28N 47°38' W 122°23'2 4.2
2017-May-15 18:00N 47°36' W 122°24'224.2 200 / 61014.7 11.1 4.6
2017-May-15 17:55N 47°38' W 122°23'0 0.0
2017-May-15 17:28N 47°38' W 122°23'2 4.2
2017-May-15 17:00N 47°36' W 122°24'262.9 200 / 41014.8 11.1 5.6
2017-May-15 16:58N 47°38' W 122°23'0 0.0
2017-May-15 16:25N 47°38' W 122°23'2 4.7
2017-May-15 16:00N 47°36' W 122°24'263.5 200 / 61015.1 10.5 7.1
2017-May-15 15:58N 47°38' W 122°23'0 0.0
2017-May-15 15:28N 47°38' W 122°23'2 4.2
2017-May-15 15:00N 47°36' W 122°24'263.5 200 / 71015.2 10.0 6.8
2017-May-15 14:58N 47°38' W 122°23'2 2.0
2017-May-15 14:00N 47°36' W 122°24'262.9 200 / 41015.1 9.3 7.4
2017-May-15 13:58N 47°38' W 122°23'0 0.0
2017-May-15 13:28N 47°38' W 122°23'2 4.2
2017-May-15 13:00N 47°36' W 122°24'263.5 190 / 51015.2 8.9 7.1
2017-May-15 12:58N 47°38' W 122°23'0 0.0
2017-May-15 12:28N 47°38' W 122°23'0 0.2
2017-May-15 12:00N 47°38' W 122°23'2123.1
2017-May-15 12:00N 47°36' W 122°24'1 3.0 170 / 91015.6 8.9 7.2
2017-May-15 11:30N 47°37' W 122°23'0 0.0
2017-May-15 11:00N 47°37' W 122°23'195.8
2017-May-15 11:00N 47°36' W 122°24'1 2.9 190 / 101015.8 9.1 7.3
2017-May-15 10:30N 47°37' W 122°23'3 6.0
2017-May-15 10:00N 47°37' W 122°28'2137.2
2017-May-15 10:00N 47°36' W 122°30'5 9.9 180 / 141015.7 9.3 8.2
2017-May-15 09:30N 47°41' W 122°28'4 7.1
2017-May-15 09:00N 47°44' W 122°30'2130.0
2017-May-15 09:00N 47°42' W 122°30'2 4.1 110 / 51016.1 9.0 9.0
2017-May-15 08:30N 47°44' W 122°30'0 0.1
2017-May-15 08:00N 47°44' W 122°30'2477.5
2017-May-15 08:00N 47°42' W 122°30'2 4.0 110 / 91016.0 9.2
2017-May-15 07:30N 47°44' W 122°30'2 3.9
2017-May-15 07:00N 47°42' W 122°30'243.5 040 / 121016.0 9.1 9.1
2017-May-15 06:57N 47°44' W 122°30'0 0.1
2017-May-15 06:30N 47°44' W 122°30'0 0.0
2017-May-15 06:00N 47°44' W 122°30'2477.0
2017-May-15 06:00N 47°42' W 122°30'2 4.1 030 / 101015.9 9.3 9.3
2017-May-15 05:30N 47°44' W 122°30'0 0.0
2017-May-15 05:00N 47°44' W 122°30'2488.5
2017-May-15 05:00N 47°42' W 122°30'2 4.1 050 / 41015.7 9.9
2017-May-15 04:30N 47°44' W 122°30'2 4.0
2017-May-15 04:00N 47°42' W 122°30'221.2 300 / 51015.3 10.410.4
2017-May-15 03:54N 47°44' W 122°30'0 0.0
2017-May-15 03:30N 47°44' W 122°30'0 0.0
2017-May-15 03:00N 47°44' W 122°30'2487.1
2017-May-15 03:00N 47°42' W 122°30'2 4.1 030 / 41014.8 10.610.4
2017-May-15 02:30N 47°44' W 122°30'2 4.1
2017-May-15 02:00N 47°42' W 122°30'244.8 170 / 121014.4 11.6 9.5
2017-May-15 01:57N 47°44' W 122°30'0 0.0
2017-May-15 01:27N 47°44' W 122°30'0 0.1
2017-May-15 01:00N 47°44' W 122°30'2489.0
2017-May-15 01:00N 47°42' W 122°30'2 4.2 120 / 101014.6 11.0 9.0
2017-May-15 00:30N 47°44' W 122°30'2 4.1
2017-May-15 00:00N 47°42' W 122°30'245.1 200 / 51014.8 10.9 9.5
2017-May-14 23:57N 47°44' W 122°30'0 0.1
2017-May-14 23:30N 47°44' W 122°30'0 0.0
2017-May-14 23:00N 47°44' W 122°30'2486.8
2017-May-14 23:00N 47°42' W 122°30'2 4.2 140 / 31015.1 10.5 9.0
2017-May-14 22:30N 47°44' W 122°30'0 1.0
2017-May-14 22:00N 47°44' W 122°30'297.4
2017-May-14 22:00N 47°42' W 122°30'2 5.0 180 / 131015.0 11.2 8.0
2017-May-14 21:31N 47°43' W 122°27'510.2
2017-May-14 21:01N 47°38' W 122°27'3172.5
2017-May-14 21:00N 47°36' W 122°30'611.9 170 / 161015.0 12.1 8.0
2017-May-14 20:30N 47°36' W 122°21'2 3.3
2017-May-14 20:00N 47°36' W 122°24'2270.6 180 / 41015.4 12.9 6.2
2017-May-14 19:59N 47°35' W 122°21'0 0.0
2017-May-14 19:29N 47°35' W 122°21'2 4.1
2017-May-14 19:00N 47°36' W 122°24'2292.2 160 / 41015.8 12.0 6.9
2017-May-14 18:59N 47°35' W 122°21'0 0.0
2017-May-14 18:29N 47°35' W 122°21'2 4.1
2017-May-14 18:00N 47°36' W 122°24'235.3 160 / 61015.9 11.1 7.2
2017-May-14 17:56N 47°35' W 122°21'0 0.0
2017-May-14 17:29N 47°35' W 122°21'2 4.1
2017-May-14 17:00N 47°36' W 122°24'2281.0 160 / 31015.9 9.8 7.3
2017-May-14 16:59N 47°35' W 122°21'0 0.4
2017-May-14 16:31N 47°35' W 122°21'2 3.6
2017-May-14 16:00N 47°36' W 122°24'270.0 160 / 61016.0 9.3 6.8
2017-May-14 15:58N 47°35' W 122°22'0 0.0
2017-May-14 15:28N 47°35' W 122°22'2 3.9
2017-May-14 15:00N 47°36' W 122°24'269.3 160 / 51015.8 9.3 7.6
2017-May-14 14:58N 47°35' W 122°22'0 0.0
2017-May-14 14:28N 47°35' W 122°22'2 3.9
2017-May-14 14:00N 47°36' W 122°24'   160 / 31015.7 9.1 7.8

Dump ship's entire track history